createdAt,value
2023-06-23T00:01:11.022Z,18.61
2023-06-23T00:03:40.075Z,18.67
2023-06-23T00:06:07.847Z,18.57
2023-06-23T00:08:36.283Z,18.60
2023-06-23T00:11:04.001Z,18.57
2023-06-23T00:13:35.990Z,18.56
2023-06-23T00:16:05.404Z,18.52
2023-06-23T00:18:35.001Z,18.45
2023-06-23T00:21:05.465Z,18.48
2023-06-23T00:23:33.395Z,18.46
2023-06-23T00:26:03.156Z,18.46
2023-06-23T00:28:32.742Z,18.52
2023-06-23T00:31:00.443Z,18.49
2023-06-23T00:33:28.442Z,18.46
2023-06-23T00:35:57.449Z,18.50
2023-06-23T00:38:26.554Z,18.35
2023-06-23T00:40:54.649Z,18.42
2023-06-23T00:43:22.464Z,18.39
2023-06-23T00:45:50.595Z,18.45
2023-06-23T00:48:18.706Z,18.44
2023-06-23T00:50:46.983Z,18.43
2023-06-23T00:53:18.099Z,18.34
2023-06-23T00:55:47.973Z,18.43
2023-06-23T00:58:15.828Z,18.34
2023-06-23T01:00:43.479Z,18.44
2023-06-23T01:03:12.011Z,18.43
2023-06-23T01:05:41.293Z,18.47
2023-06-23T01:08:20.100Z,18.43
2023-06-23T01:10:52.190Z,18.46
2023-06-23T01:13:28.404Z,18.38
2023-06-23T01:15:59.454Z,18.45
2023-06-23T01:18:35.359Z,18.45
2023-06-23T01:21:05.738Z,18.44
2023-06-23T01:23:51.290Z,18.45
2023-06-23T01:26:34.630Z,18.45
2023-06-23T01:29:08.923Z,18.53
2023-06-23T01:31:39.223Z,18.42
2023-06-23T01:34:09.381Z,18.44
2023-06-23T01:36:40.217Z,18.45
2023-06-23T01:39:09.989Z,18.46
2023-06-23T01:41:42.437Z,18.48
2023-06-23T01:44:15.357Z,18.49
2023-06-23T01:46:46.743Z,18.43
2023-06-23T01:49:18.859Z,18.45
2023-06-23T01:51:47.967Z,18.43
2023-06-23T01:54:16.640Z,18.48
2023-06-23T01:56:45.084Z,18.39
2023-06-23T01:59:15.108Z,18.35
2023-06-23T02:01:44.885Z,18.39
2023-06-23T02:04:13.209Z,18.28
2023-06-23T02:06:42.380Z,18.31
2023-06-23T02:09:12.762Z,18.27
2023-06-23T02:11:40.571Z,18.30
2023-06-23T02:14:09.023Z,18.38
2023-06-23T02:16:38.523Z,18.27
2023-06-23T02:19:06.566Z,18.22
2023-06-23T02:21:34.799Z,18.22
2023-06-23T02:24:05.971Z,18.20
2023-06-23T02:26:35.137Z,18.17
2023-06-23T02:29:03.020Z,18.24
2023-06-23T02:31:31.122Z,18.24
2023-06-23T02:34:00.381Z,18.35
2023-06-23T02:36:34.440Z,18.36
2023-06-23T02:39:05.992Z,18.28
2023-06-23T02:41:35.721Z,18.37
2023-06-23T02:44:07.804Z,18.45
2023-06-23T02:46:39.914Z,18.39
2023-06-23T02:49:12.673Z,18.47
2023-06-23T02:51:42.080Z,18.42
2023-06-23T02:54:13.607Z,18.36
2023-06-23T02:56:44.511Z,18.37
2023-06-23T02:59:14.903Z,18.36
2023-06-23T03:01:45.374Z,18.27
2023-06-23T03:04:14.582Z,18.16
2023-06-23T03:06:45.448Z,18.14
2023-06-23T03:09:13.612Z,18.11
2023-06-23T03:11:41.289Z,18.09
2023-06-23T03:14:09.716Z,18.11
2023-06-23T03:16:41.131Z,18.01
2023-06-23T03:19:21.695Z,18.03
2023-06-23T03:21:53.486Z,17.93
2023-06-23T03:24:21.867Z,17.92
2023-06-23T03:26:51.129Z,17.74
2023-06-23T03:29:21.555Z,17.78
2023-06-23T03:31:51.800Z,17.63
2023-06-23T03:34:22.009Z,17.64
2023-06-23T03:36:50.204Z,17.65
2023-06-23T03:39:21.370Z,17.57
2023-06-23T03:41:49.815Z,17.61
2023-06-23T03:44:23.192Z,17.64
2023-06-23T03:46:53.618Z,17.57
2023-06-23T03:49:25.058Z,17.55
2023-06-23T03:51:54.728Z,17.57
2023-06-23T03:54:22.760Z,17.52
2023-06-23T03:56:51.585Z,17.50
2023-06-23T03:59:20.239Z,17.44
2023-06-23T04:01:49.481Z,17.44
2023-06-23T04:04:17.617Z,17.20
2023-06-23T04:06:47.686Z,17.24
2023-06-23T04:09:17.222Z,17.28
2023-06-23T04:11:45.580Z,17.25
2023-06-23T04:14:14.656Z,17.34
2023-06-23T04:16:42.984Z,17.24
2023-06-23T04:19:13.241Z,17.29
2023-06-23T04:21:41.063Z,17.33
2023-06-23T04:24:10.503Z,17.34
2023-06-23T04:26:39.271Z,17.32
2023-06-23T04:29:08.549Z,17.26
2023-06-23T04:31:36.770Z,17.40
2023-06-23T04:34:04.481Z,17.39
2023-06-23T04:36:36.142Z,17.35
2023-06-23T04:39:12.930Z,17.29
2023-06-23T04:41:42.105Z,17.24
2023-06-23T04:44:10.933Z,17.26
2023-06-23T04:46:41.335Z,17.30
2023-06-23T04:49:10.165Z,17.37
2023-06-23T04:51:41.576Z,17.32
2023-06-23T04:54:14.183Z,17.37
2023-06-23T04:56:42.563Z,17.42
2023-06-23T04:59:11.810Z,17.41
2023-06-23T05:01:40.433Z,17.39
2023-06-23T05:04:10.123Z,17.41
2023-06-23T05:06:38.854Z,17.41
2023-06-23T05:09:07.363Z,17.42
2023-06-23T05:11:37.246Z,17.42
2023-06-23T05:14:06.005Z,17.51
2023-06-23T05:16:34.521Z,17.39
2023-06-23T05:19:02.771Z,17.52
2023-06-23T05:21:31.555Z,17.51
2023-06-23T05:23:59.507Z,17.61
2023-06-23T05:26:27.552Z,17.69
2023-06-23T05:28:57.023Z,17.81
2023-06-23T05:31:25.794Z,17.73
2023-06-23T05:33:54.031Z,17.80
2023-06-23T05:36:21.984Z,17.95
2023-06-23T05:38:50.567Z,17.71
2023-06-23T05:41:18.229Z,17.87
2023-06-23T05:43:45.903Z,17.89
2023-06-23T05:46:17.552Z,17.98
2023-06-23T05:48:49.973Z,17.92
2023-06-23T05:51:19.864Z,17.87
2023-06-23T05:53:48.628Z,17.83
2023-06-23T05:56:19.201Z,17.95
2023-06-23T05:58:47.794Z,18.07
2023-06-23T06:01:20.318Z,18.23
2023-06-23T06:03:49.945Z,18.30
2023-06-23T06:06:17.950Z,18.36
2023-06-23T06:08:46.361Z,18.36
2023-06-23T06:11:17.736Z,18.32
2023-06-23T06:13:47.825Z,18.37
2023-06-23T06:16:17.467Z,18.21
2023-06-23T06:18:45.901Z,18.36
2023-06-23T06:21:14.168Z,18.46
2023-06-23T06:23:42.860Z,18.45
2023-06-23T06:26:11.638Z,18.50
2023-06-23T06:28:40.905Z,18.66
2023-06-23T06:31:09.427Z,18.67
2023-06-23T06:33:39.945Z,18.54
2023-06-23T06:36:09.501Z,18.62
2023-06-23T06:38:39.396Z,18.54
2023-06-23T06:41:08.338Z,18.59
2023-06-23T06:43:36.260Z,18.71
2023-06-23T06:46:05.362Z,18.88
2023-06-23T06:48:35.686Z,19.29
2023-06-23T06:51:06.486Z,19.42
2023-06-23T06:53:34.126Z,19.48
2023-06-23T06:56:01.886Z,19.52
2023-06-23T06:58:29.666Z,19.63
2023-06-23T07:00:58.216Z,19.73
2023-06-23T07:03:27.032Z,19.80
2023-06-23T07:05:54.885Z,19.83
2023-06-23T07:08:23.949Z,19.97
2023-06-23T07:10:51.616Z,20.08
2023-06-23T07:13:19.431Z,20.07
2023-06-23T07:15:47.118Z,20.11
2023-06-23T07:18:15.390Z,20.07
2023-06-23T07:20:43.064Z,20.23
2023-06-23T07:23:10.866Z,20.24
2023-06-23T07:25:39.942Z,20.35
2023-06-23T07:28:07.747Z,20.33
2023-06-23T07:30:35.664Z,20.36
2023-06-23T07:33:03.707Z,20.23
2023-06-23T07:35:31.461Z,20.48
2023-06-23T07:37:59.085Z,20.42
2023-06-23T07:40:26.706Z,20.38
2023-06-23T07:42:55.723Z,20.28
2023-06-23T07:45:23.840Z,20.00
2023-06-23T07:47:51.527Z,20.15
2023-06-23T07:50:19.159Z,20.12
2023-06-23T07:52:48.657Z,20.21
2023-06-23T07:55:20.416Z,20.56
2023-06-23T07:57:48.216Z,20.70
2023-06-23T08:00:18.423Z,20.63
2023-06-23T08:02:46.356Z,20.52
2023-06-23T08:05:14.198Z,20.46
2023-06-23T08:07:41.895Z,20.25
2023-06-23T08:10:10.526Z,20.54
2023-06-23T08:12:38.718Z,20.74
2023-06-23T08:15:07.338Z,21.01
2023-06-23T08:17:36.961Z,21.18
2023-06-23T08:20:05.269Z,21.35
2023-06-23T08:22:32.894Z,21.42
2023-06-23T08:25:00.611Z,21.45
2023-06-23T08:27:28.302Z,21.55
2023-06-23T08:29:55.928Z,21.65
2023-06-23T08:32:23.720Z,21.60
2023-06-23T08:34:52.813Z,21.63
2023-06-23T08:37:20.401Z,21.88
2023-06-23T08:39:48.141Z,21.76
2023-06-23T08:42:16.178Z,21.79
2023-06-23T08:44:44.832Z,21.75
2023-06-23T08:47:15.340Z,21.82
2023-06-23T08:49:43.586Z,21.88
2023-06-23T08:52:13.025Z,21.97
2023-06-23T08:54:40.908Z,21.99
2023-06-23T08:57:09.185Z,22.08
2023-06-23T08:59:36.866Z,22.13
2023-06-23T09:02:06.085Z,22.15
2023-06-23T09:04:33.797Z,21.96
2023-06-23T09:07:01.541Z,22.01
2023-06-23T09:09:32.788Z,22.20
2023-06-23T09:12:01.867Z,22.42
2023-06-23T09:14:30.812Z,22.65
2023-06-23T09:16:59.369Z,22.63
2023-06-23T09:19:27.325Z,22.65
2023-06-23T09:21:55.263Z,22.64
2023-06-23T09:24:23.351Z,22.52
2023-06-23T09:26:53.675Z,22.68
2023-06-23T09:29:23.027Z,23.16
2023-06-23T09:31:52.505Z,23.16
2023-06-23T09:34:24.279Z,22.97
2023-06-23T09:36:53.645Z,23.06
2023-06-23T09:39:21.631Z,22.84
2023-06-23T09:41:58.832Z,23.19
2023-06-23T09:44:34.839Z,23.34
2023-06-23T09:47:02.873Z,23.44
2023-06-23T09:49:30.728Z,23.45
2023-06-23T09:51:58.469Z,23.56
2023-06-23T09:54:36.268Z,23.66
2023-06-23T09:57:06.888Z,23.57
2023-06-23T09:59:34.621Z,23.31
2023-06-23T10:02:02.575Z,23.41
2023-06-23T10:04:31.074Z,23.37
2023-06-23T10:06:59.379Z,23.41
2023-06-23T10:09:27.657Z,23.27
2023-06-23T10:11:55.316Z,23.25
2023-06-23T10:14:24.417Z,23.09
2023-06-23T10:16:58.510Z,23.40
2023-06-23T10:19:26.316Z,23.45
2023-06-23T10:21:55.278Z,23.31
2023-06-23T10:24:24.363Z,23.38
2023-06-23T10:26:53.138Z,23.45
2023-06-23T10:29:21.577Z,23.55
2023-06-23T10:31:51.627Z,23.40
2023-06-23T10:34:21.120Z,23.44
2023-06-23T10:36:53.146Z,23.64
2023-06-23T10:39:20.931Z,23.59
2023-06-23T10:41:52.549Z,23.87
2023-06-23T10:44:20.985Z,23.78
2023-06-23T10:46:50.820Z,24.06
2023-06-23T10:49:21.319Z,24.17
2023-06-23T10:51:51.313Z,24.10
2023-06-23T10:54:28.334Z,24.26
2023-06-23T10:56:56.725Z,24.39
2023-06-23T10:59:25.478Z,24.06
2023-06-23T11:02:11.635Z,24.16
2023-06-23T11:04:42.580Z,24.30
2023-06-23T11:07:11.411Z,24.42
2023-06-23T11:09:46.120Z,24.76
2023-06-23T11:12:43.120Z,24.88
2023-06-23T11:15:17.363Z,25.00
2023-06-23T11:17:47.681Z,24.89
2023-06-23T11:20:29.720Z,24.77
2023-06-23T11:22:57.745Z,24.94
2023-06-23T11:25:26.041Z,25.08
2023-06-23T11:28:26.914Z,25.17
2023-06-23T11:30:56.089Z,25.33
2023-06-23T11:33:28.713Z,25.33
2023-06-23T11:35:56.589Z,25.45
2023-06-23T11:38:24.266Z,25.47
2023-06-23T11:40:52.416Z,25.47
2023-06-23T11:43:25.863Z,25.69
2023-06-23T11:45:57.047Z,25.78
2023-06-23T11:48:29.717Z,25.92
2023-06-23T11:50:57.870Z,26.05
2023-06-23T11:53:25.707Z,25.91
2023-06-23T11:55:54.321Z,25.96
2023-06-23T11:58:21.938Z,25.95
2023-06-23T12:00:49.764Z,25.88
2023-06-23T12:03:18.387Z,26.02
2023-06-23T12:05:47.722Z,25.89
2023-06-23T12:08:15.510Z,25.83
2023-06-23T12:10:43.424Z,26.38
2023-06-23T12:13:12.108Z,26.29
2023-06-23T12:15:40.034Z,26.40
2023-06-23T12:18:08.380Z,26.15
2023-06-23T12:20:36.646Z,26.42
2023-06-23T12:23:09.988Z,26.50
2023-06-23T12:25:40.239Z,25.82
2023-06-23T12:28:13.490Z,25.99
2023-06-23T12:30:42.713Z,26.18
2023-06-23T12:33:17.328Z,26.29
2023-06-23T12:35:57.359Z,26.54
2023-06-23T12:38:26.497Z,26.70
2023-06-23T12:40:54.269Z,26.52
2023-06-23T12:43:22.655Z,26.39
2023-06-23T12:45:50.956Z,26.16
2023-06-23T12:48:22.131Z,26.39
2023-06-23T12:50:49.871Z,26.23
2023-06-23T12:53:17.682Z,26.34
2023-06-23T12:55:47.194Z,26.53
2023-06-23T12:58:14.849Z,26.58
2023-06-23T13:00:44.250Z,26.54
2023-06-23T13:03:15.388Z,26.53
2023-06-23T13:05:45.467Z,26.83
2023-06-23T13:08:14.324Z,26.93
2023-06-23T13:10:43.005Z,26.90
2023-06-23T13:13:12.683Z,26.99
2023-06-23T13:15:40.414Z,26.76
2023-06-23T13:18:08.469Z,26.56
2023-06-23T13:20:36.274Z,26.25
2023-06-23T13:23:04.066Z,26.56
2023-06-23T13:25:32.319Z,26.70
2023-06-23T13:28:00.184Z,26.98
2023-06-23T13:30:29.736Z,27.07
2023-06-23T13:32:57.506Z,27.09
2023-06-23T13:35:25.451Z,26.89
2023-06-23T13:37:55.583Z,26.68
2023-06-23T13:40:23.251Z,26.62
2023-06-23T13:42:50.993Z,26.73
2023-06-23T13:45:18.854Z,26.48
2023-06-23T13:47:47.967Z,26.86
2023-06-23T13:50:16.745Z,26.71
2023-06-23T13:52:45.782Z,26.77
2023-06-23T13:55:14.632Z,26.87
2023-06-23T13:57:45.662Z,26.88
2023-06-23T14:00:15.516Z,26.82
2023-06-23T14:02:43.481Z,27.09
2023-06-23T14:05:15.239Z,27.26
2023-06-23T14:07:43.106Z,26.98
2023-06-23T14:10:11.469Z,27.01
2023-06-23T14:12:39.130Z,26.94
2023-06-23T14:15:08.218Z,26.99
2023-06-23T14:17:35.916Z,27.02
2023-06-23T14:20:03.874Z,27.17
2023-06-23T14:22:33.184Z,26.97
2023-06-23T14:25:00.842Z,26.73
2023-06-23T14:27:29.284Z,26.83
2023-06-23T14:29:56.970Z,26.91
2023-06-23T14:32:24.910Z,26.94
2023-06-23T14:34:52.580Z,26.95
2023-06-23T14:37:20.172Z,27.02
2023-06-23T14:39:52.188Z,26.80
2023-06-23T14:42:20.550Z,26.98
2023-06-23T14:44:48.211Z,27.18
2023-06-23T14:47:15.790Z,27.15
2023-06-23T14:49:43.480Z,26.90
2023-06-23T14:52:11.255Z,26.98
2023-06-23T14:54:38.974Z,26.93
2023-06-23T14:57:08.473Z,26.81
2023-06-23T14:59:36.156Z,27.03
2023-06-23T15:02:04.059Z,26.98
2023-06-23T15:04:32.666Z,27.09
2023-06-23T15:07:00.365Z,26.96
2023-06-23T15:09:29.293Z,26.67
2023-06-23T15:11:57.027Z,26.63
2023-06-23T15:14:26.410Z,26.50
2023-06-23T15:16:54.131Z,26.33
2023-06-23T15:19:21.958Z,26.21
2023-06-23T15:21:49.686Z,26.27
2023-06-23T15:24:17.361Z,26.21
2023-06-23T15:26:44.996Z,26.32
2023-06-23T15:29:12.781Z,26.45
2023-06-23T15:31:41.859Z,26.79
2023-06-23T15:34:09.513Z,26.82
2023-06-23T15:36:37.209Z,27.01
2023-06-23T15:39:05.139Z,27.17
2023-06-23T15:41:32.788Z,26.99
2023-06-23T15:44:00.418Z,26.82
2023-06-23T15:46:28.066Z,26.92
2023-06-23T15:48:57.022Z,27.16
2023-06-23T15:51:24.771Z,26.87
2023-06-23T15:53:52.407Z,26.84
2023-06-23T15:56:20.092Z,26.55
2023-06-23T15:58:47.696Z,26.43
2023-06-23T16:01:15.330Z,26.60
2023-06-23T16:03:43.394Z,26.48
2023-06-23T16:06:12.586Z,26.36
2023-06-23T16:08:40.207Z,26.34
2023-06-23T16:11:09.797Z,26.08
2023-06-23T16:13:39.168Z,26.24
2023-06-23T16:16:07.051Z,26.40
2023-06-23T16:18:34.824Z,26.62
2023-06-23T16:21:02.506Z,26.43
2023-06-23T16:23:31.718Z,26.09
2023-06-23T16:25:59.352Z,26.24
2023-06-23T16:28:27.016Z,26.05
2023-06-23T16:30:55.188Z,26.10
2023-06-23T16:33:22.867Z,26.07
2023-06-23T16:35:50.626Z,26.03
2023-06-23T16:38:18.282Z,26.07
2023-06-23T16:40:47.316Z,26.07
2023-06-23T16:43:14.961Z,26.07
2023-06-23T16:45:42.688Z,26.06
2023-06-23T16:48:10.497Z,26.19
2023-06-23T16:50:38.282Z,25.97
2023-06-23T16:53:07.620Z,26.17
2023-06-23T16:55:35.592Z,26.02
2023-06-23T16:58:04.686Z,26.19
2023-06-23T17:00:32.935Z,26.16
2023-06-23T17:03:01.140Z,26.13
2023-06-23T17:05:28.973Z,26.20
2023-06-23T17:07:56.631Z,26.25
2023-06-23T17:10:24.403Z,26.29
2023-06-23T17:12:52.190Z,26.28
2023-06-23T17:15:21.442Z,26.33
2023-06-23T17:17:49.160Z,26.39
2023-06-23T17:20:16.905Z,26.40
2023-06-23T17:22:44.584Z,26.39
2023-06-23T17:25:13.179Z,26.42
2023-06-23T17:27:41.050Z,26.35
2023-06-23T17:30:10.057Z,26.39
2023-06-23T17:32:39.126Z,26.29
2023-06-23T17:35:07.242Z,26.30
2023-06-23T17:37:34.988Z,26.07
2023-06-23T17:40:02.655Z,26.17
2023-06-23T17:42:30.246Z,26.22
2023-06-23T17:44:57.892Z,25.99
2023-06-23T17:47:26.679Z,26.17
2023-06-23T17:49:56.239Z,26.21
2023-06-23T17:52:23.979Z,26.11
2023-06-23T17:54:51.591Z,25.95
2023-06-23T17:57:19.249Z,25.96
2023-06-23T17:59:46.836Z,25.83
2023-06-23T18:02:17.992Z,25.95
2023-06-23T18:04:47.039Z,25.79
2023-06-23T18:07:16.221Z,25.70
2023-06-23T18:09:43.865Z,25.57
2023-06-23T18:12:11.545Z,25.49
2023-06-23T18:14:39.197Z,25.48
2023-06-23T18:17:07.392Z,25.37
2023-06-23T18:19:35.086Z,25.23
2023-06-23T18:22:02.691Z,25.10
2023-06-23T18:24:31.696Z,24.88
2023-06-23T18:26:59.520Z,24.80
2023-06-23T18:29:27.162Z,24.72
2023-06-23T18:31:57.687Z,24.65
2023-06-23T18:34:25.331Z,24.51
2023-06-23T18:36:53.082Z,24.40
2023-06-23T18:39:20.810Z,24.42
2023-06-23T18:41:49.791Z,24.39
2023-06-23T18:44:19.971Z,24.23
2023-06-23T18:46:47.616Z,24.15
2023-06-23T18:49:15.377Z,23.97
2023-06-23T18:51:43.043Z,23.88
2023-06-23T18:54:10.622Z,23.78
2023-06-23T18:56:38.363Z,23.67
2023-06-23T18:59:07.505Z,23.51
2023-06-23T19:01:35.114Z,23.58
2023-06-23T19:04:02.727Z,23.40
2023-06-23T19:06:30.383Z,23.39
2023-06-23T19:08:58.775Z,23.26
2023-06-23T19:11:27.016Z,23.06
2023-06-23T19:13:54.716Z,23.08
2023-06-23T19:16:23.709Z,23.06
2023-06-23T19:18:51.343Z,22.88
2023-06-23T19:21:18.977Z,22.87
2023-06-23T19:23:48.818Z,22.83
2023-06-23T19:26:16.553Z,22.64
2023-06-23T19:28:44.274Z,22.49
2023-06-23T19:31:11.908Z,22.38
2023-06-23T19:33:40.979Z,22.31
2023-06-23T19:36:08.838Z,22.29
2023-06-23T19:38:36.448Z,22.21
2023-06-23T19:41:05.030Z,22.09
2023-06-23T19:43:32.661Z,22.12
2023-06-23T19:46:00.321Z,22.00
2023-06-23T19:48:27.964Z,21.89
2023-06-23T19:50:56.933Z,21.81
2023-06-23T19:53:24.823Z,21.77
2023-06-23T19:55:52.478Z,21.78
2023-06-23T19:58:20.971Z,21.48
2023-06-23T20:00:48.756Z,21.47
2023-06-23T20:03:16.612Z,21.47
2023-06-23T20:05:44.444Z,21.36
2023-06-23T20:08:13.463Z,21.33
2023-06-23T20:10:41.089Z,21.28
2023-06-23T20:13:09.926Z,21.06
2023-06-23T20:15:37.611Z,21.02
2023-06-23T20:18:05.650Z,21.00
2023-06-23T20:20:34.389Z,21.03
2023-06-23T20:23:03.313Z,21.04
2023-06-23T20:25:32.316Z,21.08
2023-06-23T20:27:59.983Z,21.10
2023-06-23T20:30:28.679Z,20.98
2023-06-23T20:32:56.382Z,20.87
2023-06-23T20:35:24.036Z,20.86
2023-06-23T20:37:52.826Z,20.82
2023-06-23T20:40:20.975Z,20.73
2023-06-23T20:42:50.025Z,20.76
2023-06-23T20:45:20.702Z,20.69
2023-06-23T20:47:48.524Z,20.68
2023-06-23T20:50:16.463Z,20.54
2023-06-23T20:52:44.137Z,20.49
2023-06-23T20:55:12.018Z,20.45
2023-06-23T20:57:39.684Z,20.33
2023-06-23T21:00:10.375Z,20.28
2023-06-23T21:02:38.127Z,20.23
2023-06-23T21:05:06.299Z,20.05
2023-06-23T21:07:33.954Z,20.05
2023-06-23T21:10:02.728Z,19.82
2023-06-23T21:12:33.556Z,19.87
2023-06-23T21:15:05.602Z,19.77
2023-06-23T21:17:34.969Z,19.82
2023-06-23T21:20:02.602Z,19.82
2023-06-23T21:22:30.261Z,19.70
2023-06-23T21:24:57.975Z,19.73
2023-06-23T21:27:25.815Z,19.74
2023-06-23T21:29:53.859Z,19.71
2023-06-23T21:32:22.250Z,19.74
2023-06-23T21:34:51.239Z,19.73
2023-06-23T21:37:18.983Z,19.87
2023-06-23T21:39:46.817Z,19.82
2023-06-23T21:42:14.486Z,19.84
2023-06-23T21:44:42.797Z,19.76
2023-06-23T21:47:11.369Z,19.86
2023-06-23T21:49:39.099Z,19.82
2023-06-23T21:52:09.032Z,19.74
2023-06-23T21:54:37.422Z,19.90
2023-06-23T21:57:05.447Z,19.75
2023-06-23T21:59:33.086Z,19.63
2023-06-23T22:02:00.770Z,19.65
2023-06-23T22:04:28.461Z,19.73
2023-06-23T22:06:56.092Z,19.73
2023-06-23T22:09:25.049Z,19.67
2023-06-23T22:11:54.248Z,19.55
2023-06-23T22:14:26.099Z,19.52
2023-06-23T22:16:54.331Z,19.55
2023-06-23T22:19:22.122Z,19.50
2023-06-23T22:21:49.859Z,19.53
2023-06-23T22:24:17.997Z,19.43
2023-06-23T22:26:47.203Z,19.45
2023-06-23T22:29:14.817Z,19.13
2023-06-23T22:31:42.524Z,19.23
2023-06-23T22:34:10.276Z,19.17
2023-06-23T22:36:37.914Z,19.04
2023-06-23T22:39:05.616Z,18.89
2023-06-23T22:41:34.443Z,18.86
2023-06-23T22:44:03.412Z,18.56
2023-06-23T22:46:31.339Z,18.61
2023-06-23T22:48:59.136Z,18.57
2023-06-23T22:51:32.434Z,18.51
2023-06-23T22:54:00.144Z,18.54
2023-06-23T22:56:28.164Z,18.59
2023-06-23T22:58:55.831Z,18.46
2023-06-23T23:01:25.207Z,18.11
2023-06-23T23:03:53.103Z,17.97
2023-06-23T23:06:20.858Z,17.86
2023-06-23T23:08:49.574Z,17.85
2023-06-23T23:11:17.267Z,17.96
2023-06-23T23:13:44.935Z,18.00
2023-06-23T23:16:13.771Z,18.06
2023-06-23T23:18:44.568Z,18.17
2023-06-23T23:21:12.657Z,18.24
2023-06-23T23:23:40.319Z,18.29
2023-06-23T23:26:07.984Z,18.32
2023-06-23T23:28:35.649Z,18.31
2023-06-23T23:31:03.320Z,18.28
2023-06-23T23:33:31.283Z,18.28
2023-06-23T23:36:03.102Z,18.31
2023-06-23T23:38:30.964Z,18.38
2023-06-23T23:40:59.188Z,18.40
2023-06-23T23:43:26.942Z,18.35
2023-06-23T23:45:55.010Z,18.36
2023-06-23T23:48:22.704Z,18.37
2023-06-23T23:50:50.422Z,18.39
2023-06-23T23:53:19.443Z,18.30
2023-06-23T23:55:47.089Z,18.32
2023-06-23T23:58:14.755Z,18.34
